createdAt,value
2022-11-09T00:00:39.703Z,17.4
2022-11-09T00:01:44.207Z,17.5
2022-11-09T00:02:48.623Z,18.6
2022-11-09T00:03:52.794Z,19.6
2022-11-09T00:04:59.839Z,18.9
2022-11-09T00:06:04.155Z,17
2022-11-09T00:07:08.686Z,17
2022-11-09T00:08:12.801Z,17.9
2022-11-09T00:09:17.532Z,16.5
2022-11-09T00:10:21.823Z,17.6
2022-11-09T00:11:25.967Z,18.8
2022-11-09T00:12:30.507Z,17.7
2022-11-09T00:13:35.523Z,18
2022-11-09T00:14:39.691Z,16
2022-11-09T00:15:44.408Z,16.4
2022-11-09T00:16:48.870Z,18
2022-11-09T00:17:56.124Z,17.4
2022-11-09T00:19:01.037Z,15.8
2022-11-09T00:20:05.220Z,18.9
2022-11-09T00:21:09.676Z,16.6
2022-11-09T00:22:14.183Z,16.6
2022-11-09T00:23:19.140Z,16.9
2022-11-09T00:24:23.583Z,17.5
2022-11-09T00:25:28.038Z,16.6
2022-11-09T00:26:32.276Z,17.7
2022-11-09T00:27:36.839Z,17.6
2022-11-09T00:28:41.335Z,18.6
2022-11-09T00:29:45.920Z,18.2
2022-11-09T00:30:49.940Z,18.2
2022-11-09T00:32:00.105Z,19.4
2022-11-09T00:33:06.032Z,16.4
2022-11-09T00:34:10.490Z,15.8
2022-11-09T00:35:14.969Z,16.1
2022-11-09T00:36:19.041Z,15.6
2022-11-09T00:37:23.267Z,17.7
2022-11-09T00:38:27.236Z,16.9
2022-11-09T00:39:31.568Z,17
2022-11-09T00:40:35.924Z,19.1
2022-11-09T00:41:40.579Z,15.7
2022-11-09T00:42:44.536Z,16.8
2022-11-09T00:43:48.628Z,16
2022-11-09T00:44:52.792Z,16.2
2022-11-09T00:45:57.313Z,17.3
2022-11-09T00:47:01.884Z,17.7
2022-11-09T00:48:06.176Z,17.2
2022-11-09T00:49:10.591Z,16.6
2022-11-09T00:50:15.150Z,16.8
2022-11-09T00:51:19.284Z,18
2022-11-09T00:52:23.430Z,18.1
2022-11-09T00:53:27.471Z,18.7
2022-11-09T00:54:31.496Z,17.9
2022-11-09T00:55:35.655Z,19.1
2022-11-09T00:56:39.653Z,18.2
2022-11-09T00:57:43.816Z,18.4
2022-11-09T00:58:50.914Z,17.8
2022-11-09T00:59:55.008Z,17.2
2022-11-09T01:00:59.284Z,17.2
2022-11-09T01:02:06.277Z,17.4
2022-11-09T01:03:10.503Z,17.8
2022-11-09T01:04:15.108Z,17.2
2022-11-09T01:05:19.575Z,17.3
2022-11-09T01:06:23.599Z,16
2022-11-09T01:07:27.721Z,16.4
2022-11-09T01:08:32.258Z,17.3
2022-11-09T01:09:36.373Z,17.9
2022-11-09T01:10:40.581Z,18
2022-11-09T01:11:45.031Z,17.7
2022-11-09T01:12:49.651Z,16.2
2022-11-09T01:13:53.701Z,16.4
2022-11-09T01:14:58.348Z,16.5
2022-11-09T01:16:02.888Z,16.6
2022-11-09T01:17:10.637Z,17.2
2022-11-09T01:18:14.924Z,16.7
2022-11-09T01:19:19.353Z,17.7
2022-11-09T01:20:23.909Z,17.3
2022-11-09T01:21:28.039Z,16.8
2022-11-09T01:22:32.553Z,17.5
2022-11-09T01:23:36.733Z,17.2
2022-11-09T01:24:41.508Z,16.9
2022-11-09T01:25:46.196Z,15.9
2022-11-09T01:26:50.488Z,17.7
2022-11-09T01:27:54.536Z,16.7
2022-11-09T01:28:59.016Z,17.4
2022-11-09T01:30:03.196Z,16.1
2022-11-09T01:31:07.784Z,17.2
2022-11-09T01:32:11.876Z,15.3
2022-11-09T01:33:16.044Z,15.2
2022-11-09T01:34:20.021Z,14.4
2022-11-09T01:35:24.657Z,15.2
2022-11-09T01:36:28.783Z,16.1
2022-11-09T01:37:32.920Z,15.9
2022-11-09T01:38:37.460Z,16.3
2022-11-09T01:39:42.000Z,18.3
2022-11-09T01:40:46.625Z,17.5
2022-11-09T01:41:51.396Z,16.5
2022-11-09T01:42:55.712Z,17
2022-11-09T01:43:59.815Z,17
2022-11-09T01:45:03.976Z,18.2
2022-11-09T01:46:18.777Z,17.3
2022-11-09T01:47:23.260Z,16.2
2022-11-09T01:48:27.341Z,16
2022-11-09T01:49:34.044Z,18.2
2022-11-09T01:50:46.824Z,15.5
2022-11-09T01:51:51.445Z,18.6
2022-11-09T01:53:03.952Z,17
2022-11-09T01:54:08.165Z,16.4
2022-11-09T01:55:12.376Z,16.2
2022-11-09T01:56:16.853Z,17.2
2022-11-09T01:57:21.093Z,17
2022-11-09T01:58:25.481Z,16.1
2022-11-09T01:59:29.488Z,17.2
2022-11-09T02:00:33.733Z,16.7
2022-11-09T02:01:38.295Z,18.4
2022-11-09T02:02:42.292Z,17.9
2022-11-09T02:03:46.630Z,17.6
2022-11-09T02:04:53.507Z,16.5
2022-11-09T02:05:57.609Z,17.3
2022-11-09T02:07:02.122Z,17.8
2022-11-09T02:08:06.552Z,16.6
2022-11-09T02:09:10.919Z,17.9
2022-11-09T02:10:25.664Z,17.2
2022-11-09T02:11:37.825Z,17
2022-11-09T02:12:42.415Z,18.3
2022-11-09T02:13:46.693Z,18.8
2022-11-09T02:14:53.633Z,20.5
2022-11-09T02:15:57.867Z,19.7
2022-11-09T02:17:02.487Z,19.6
2022-11-09T02:18:07.040Z,20.4
2022-11-09T02:19:11.523Z,19
2022-11-09T02:20:15.702Z,17.7
2022-11-09T02:21:20.248Z,18.5
2022-11-09T02:22:26.999Z,18.8
2022-11-09T02:23:31.384Z,20.1
2022-11-09T02:24:35.606Z,18.8
2022-11-09T02:25:40.239Z,20
2022-11-09T02:26:44.655Z,20.8
2022-11-09T02:27:49.671Z,20.5
2022-11-09T02:28:53.814Z,19.1
2022-11-09T02:29:58.240Z,19.7
2022-11-09T02:31:02.498Z,19.8
2022-11-09T02:32:06.670Z,19
2022-11-09T02:33:10.834Z,19
2022-11-09T02:34:15.528Z,20
2022-11-09T02:35:19.904Z,20.6
2022-11-09T02:36:24.234Z,20.6
2022-11-09T02:37:28.593Z,20.7
2022-11-09T02:38:36.031Z,20
2022-11-09T02:39:40.317Z,19.4
2022-11-09T02:40:44.506Z,20.3
2022-11-09T02:41:48.991Z,20.3
2022-11-09T02:42:59.086Z,20.2
2022-11-09T02:44:03.246Z,21.1
2022-11-09T02:45:07.339Z,20.5
2022-11-09T02:46:11.406Z,20.3
2022-11-09T02:47:15.673Z,19.5
2022-11-09T02:48:20.695Z,19.8
2022-11-09T02:49:25.336Z,20.5
2022-11-09T02:50:29.756Z,23.4
2022-11-09T02:51:33.823Z,24.8
2022-11-09T02:52:38.194Z,24.3
2022-11-09T02:53:42.626Z,22.6
2022-11-09T02:54:46.550Z,21.5
2022-11-09T02:55:50.667Z,21.4
2022-11-09T02:56:54.690Z,22
2022-11-09T02:58:00.074Z,21.5
2022-11-09T02:59:04.438Z,21.9
2022-11-09T03:00:08.565Z,21.1
2022-11-09T03:01:13.199Z,21.3
2022-11-09T03:02:17.207Z,21.6
2022-11-09T03:03:21.527Z,21.2
2022-11-09T03:04:25.474Z,21
2022-11-09T03:05:29.389Z,20.6
2022-11-09T03:06:33.714Z,21.5
2022-11-09T03:07:38.080Z,21.9
2022-11-09T03:08:42.245Z,20.3
2022-11-09T03:09:46.424Z,20.5
2022-11-09T03:10:50.862Z,22.3
2022-11-09T03:11:54.913Z,20.6
2022-11-09T03:12:59.033Z,21.7
2022-11-09T03:14:03.116Z,20
2022-11-09T03:15:07.327Z,19.7
2022-11-09T03:16:12.294Z,20.3
2022-11-09T03:17:16.437Z,20.3
2022-11-09T03:18:20.526Z,21.1
2022-11-09T03:19:24.709Z,22.4
2022-11-09T03:20:28.949Z,21.3
2022-11-09T03:21:33.628Z,21.1
2022-11-09T03:22:37.909Z,20.6
2022-11-09T03:23:42.554Z,20.8
2022-11-09T03:24:47.410Z,19.3
2022-11-09T03:25:51.866Z,20.8
2022-11-09T03:26:56.113Z,19.5
2022-11-09T03:28:00.191Z,20.3
2022-11-09T03:29:04.405Z,19.9
2022-11-09T03:30:08.921Z,20.6
2022-11-09T03:31:12.990Z,18.6
2022-11-09T03:32:17.096Z,20.5
2022-11-09T03:33:21.895Z,20.3
2022-11-09T03:34:25.665Z,19.3
2022-11-09T03:35:29.870Z,17.9
2022-11-09T03:36:34.298Z,18.5
2022-11-09T03:37:38.583Z,19.4
2022-11-09T03:38:42.922Z,19
2022-11-09T03:39:47.013Z,18.9
2022-11-09T03:40:51.246Z,19.4
2022-11-09T03:41:55.676Z,18.8
2022-11-09T03:42:59.778Z,18.7
2022-11-09T03:44:04.350Z,18.1
2022-11-09T03:45:08.558Z,17.2
2022-11-09T03:46:15.621Z,18.5
2022-11-09T03:47:20.110Z,18.3
2022-11-09T03:48:24.271Z,18.1
2022-11-09T03:49:28.369Z,19.1
2022-11-09T03:50:32.915Z,18.5
2022-11-09T03:51:37.010Z,18.6
2022-11-09T03:52:41.682Z,18.2
2022-11-09T03:53:46.141Z,18.9
2022-11-09T03:54:50.360Z,17.7
2022-11-09T03:55:54.818Z,17.8
2022-11-09T03:56:59.864Z,18.6
2022-11-09T03:58:04.202Z,17.7
2022-11-09T03:59:08.638Z,17.9
2022-11-09T04:00:13.430Z,18.6
2022-11-09T04:01:17.628Z,18.1
2022-11-09T04:02:21.951Z,18.3
2022-11-09T04:03:26.381Z,19.5
2022-11-09T04:04:30.518Z,17.3
2022-11-09T04:05:35.041Z,17.6
2022-11-09T04:06:39.178Z,18
2022-11-09T04:07:43.182Z,19
2022-11-09T04:08:51.238Z,18.5
2022-11-09T04:09:51.455Z,17.9
2022-11-09T04:10:55.942Z,18.2
2022-11-09T04:12:00.474Z,18.7
2022-11-09T04:13:05.085Z,18.5
2022-11-09T04:14:09.213Z,18.4
2022-11-09T04:15:13.246Z,18.1
2022-11-09T04:16:17.395Z,17.9
2022-11-09T04:17:21.492Z,18.7
2022-11-09T04:18:25.962Z,20
2022-11-09T04:19:30.079Z,18.6
2022-11-09T04:20:34.806Z,19
2022-11-09T04:21:39.238Z,18
2022-11-09T04:22:43.934Z,18.7
2022-11-09T04:23:48.387Z,17.8
2022-11-09T04:24:52.591Z,18.8
2022-11-09T04:25:57.090Z,17.3
2022-11-09T04:27:01.270Z,18.4
2022-11-09T04:28:05.782Z,17.6
2022-11-09T04:29:09.851Z,16.4
2022-11-09T04:30:13.926Z,17.7
2022-11-09T04:31:18.447Z,16.9
2022-11-09T04:32:22.519Z,18.6
2022-11-09T04:33:26.574Z,15.6
2022-11-09T04:34:30.712Z,17.7
2022-11-09T04:35:35.207Z,17.5
2022-11-09T04:36:39.485Z,18.8
2022-11-09T04:37:44.262Z,17.6
2022-11-09T04:38:56.587Z,17.4
2022-11-09T04:40:00.958Z,18.2
2022-11-09T04:41:05.638Z,16.8
2022-11-09T04:42:09.869Z,18.8
2022-11-09T04:43:14.073Z,20.2
2022-11-09T04:44:18.073Z,18.2
2022-11-09T04:45:22.095Z,17
2022-11-09T04:46:26.503Z,17.6
2022-11-09T04:47:30.900Z,18.7
2022-11-09T04:48:35.447Z,18.3
2022-11-09T04:49:40.062Z,17
2022-11-09T04:50:44.466Z,16.2
2022-11-09T04:51:48.575Z,17.5
2022-11-09T04:52:52.662Z,16.1
2022-11-09T04:53:57.382Z,16.7
2022-11-09T04:55:01.863Z,16.5
2022-11-09T04:56:06.530Z,16.5
2022-11-09T04:57:11.166Z,15.9
2022-11-09T04:58:18.002Z,17.1
2022-11-09T04:59:20.250Z,16.7
2022-11-09T05:00:24.376Z,17.5
2022-11-09T05:01:28.774Z,18.5
2022-11-09T05:02:33.263Z,17.2
2022-11-09T05:03:37.589Z,19.2
2022-11-09T05:04:42.214Z,17.2
2022-11-09T05:05:48.427Z,17.2
2022-11-09T05:06:51.096Z,17.2
2022-11-09T05:07:55.227Z,17.2
2022-11-09T05:08:59.874Z,17.3
2022-11-09T05:10:04.454Z,17.1
2022-11-09T05:11:09.035Z,17.3
2022-11-09T05:12:13.318Z,17.3
2022-11-09T05:13:18.025Z,17.3
2022-11-09T05:14:21.695Z,18.3
2022-11-09T05:15:25.874Z,18.5
2022-11-09T05:16:30.478Z,17.6
2022-11-09T05:17:35.031Z,18
2022-11-09T05:18:39.502Z,16.1
2022-11-09T05:19:43.727Z,17
2022-11-09T05:20:48.363Z,18.1
2022-11-09T05:21:52.785Z,18.1
2022-11-09T05:22:56.990Z,17.5
2022-11-09T05:24:06.719Z,18
2022-11-09T05:25:11.823Z,16.8
2022-11-09T05:26:16.318Z,17.2
2022-11-09T05:27:20.941Z,17.6
2022-11-09T05:28:25.495Z,18.1
2022-11-09T05:29:29.962Z,17.6
2022-11-09T05:30:34.070Z,18.3
2022-11-09T05:31:38.817Z,20.7
2022-11-09T05:32:43.246Z,18.5
2022-11-09T05:33:48.047Z,18.8
2022-11-09T05:34:52.407Z,17.9
2022-11-09T05:35:56.940Z,17.6
2022-11-09T05:37:03.594Z,16.9
2022-11-09T05:38:06.030Z,18
2022-11-09T05:39:10.194Z,19
2022-11-09T05:40:14.364Z,17.1
2022-11-09T05:41:19.135Z,18.1
2022-11-09T05:42:23.967Z,20.2
2022-11-09T05:43:28.143Z,18.5
2022-11-09T05:44:35.308Z,18.1
2022-11-09T05:45:42.889Z,18.6
2022-11-09T05:46:43.918Z,19.3
2022-11-09T05:47:48.419Z,19.9
2022-11-09T05:48:52.575Z,18.4
2022-11-09T05:49:58.607Z,18.6
2022-11-09T05:51:03.454Z,18.4
2022-11-09T05:52:07.830Z,19.2
2022-11-09T05:53:12.008Z,18.2
2022-11-09T05:54:16.563Z,17.7
2022-11-09T05:55:21.114Z,19.3
2022-11-09T05:56:25.718Z,17.6
2022-11-09T05:57:29.759Z,18
2022-11-09T05:58:33.804Z,17.9
2022-11-09T05:59:37.802Z,18.4
2022-11-09T06:00:41.951Z,18.2
2022-11-09T06:01:46.089Z,18.5
2022-11-09T06:02:50.252Z,16.6
2022-11-09T06:03:54.740Z,17.9
2022-11-09T06:04:59.310Z,18.5
2022-11-09T06:06:08.255Z,17
2022-11-09T06:07:08.588Z,16.3
2022-11-09T06:08:12.815Z,16.3
2022-11-09T06:09:17.598Z,16.4
2022-11-09T06:10:22.216Z,17.7
2022-11-09T06:11:27.006Z,17.4
2022-11-09T06:12:31.947Z,16.9
2022-11-09T06:13:36.610Z,16.4
2022-11-09T06:14:41.760Z,18.2
2022-11-09T06:15:46.198Z,17
2022-11-09T06:16:56.102Z,17.1
2022-11-09T06:18:00.583Z,18.3
2022-11-09T06:19:04.922Z,18.3
2022-11-09T06:20:09.187Z,17.5
2022-11-09T06:21:14.078Z,17.3
2022-11-09T06:22:18.271Z,18.1
2022-11-09T06:23:22.730Z,17.5
2022-11-09T06:24:26.914Z,18.9
2022-11-09T06:25:31.443Z,16.4
2022-11-09T06:26:35.698Z,17.6
2022-11-09T06:27:40.532Z,17
2022-11-09T06:28:45.247Z,16.8
2022-11-09T06:29:49.816Z,16.7
2022-11-09T06:30:53.902Z,16.1
2022-11-09T06:31:58.519Z,16.8
2022-11-09T06:33:03.077Z,16.4
2022-11-09T06:34:07.931Z,16.6
2022-11-09T06:35:12.536Z,18.7
2022-11-09T06:36:17.016Z,17.2
2022-11-09T06:37:21.524Z,16.3
2022-11-09T06:38:26.039Z,16.2
2022-11-09T06:39:30.459Z,16.6
2022-11-09T06:40:34.713Z,15.5
2022-11-09T06:41:42.175Z,16.8
2022-11-09T06:42:43.826Z,17.2
2022-11-09T06:43:47.864Z,17
2022-11-09T06:44:52.126Z,18.7
2022-11-09T06:45:56.762Z,17.7
2022-11-09T06:47:01.176Z,16.7
2022-11-09T06:48:05.810Z,16
2022-11-09T06:49:10.855Z,16.8
2022-11-09T06:50:15.234Z,15.9
2022-11-09T06:51:19.579Z,15.6
2022-11-09T06:52:23.671Z,17
2022-11-09T06:53:27.751Z,17.8
2022-11-09T06:54:32.431Z,18
2022-11-09T06:55:36.910Z,16.4
2022-11-09T06:56:41.815Z,17.4
2022-11-09T06:57:46.608Z,15.8
2022-11-09T06:58:51.558Z,16.5
2022-11-09T06:59:56.379Z,15.5
2022-11-09T07:01:00.856Z,17.7
2022-11-09T07:02:07.424Z,15.7
2022-11-09T07:03:11.791Z,17.3
2022-11-09T07:04:16.761Z,16
2022-11-09T07:05:21.547Z,14.7
2022-11-09T07:06:25.934Z,15.7
2022-11-09T07:07:30.743Z,15.8
2022-11-09T07:08:35.431Z,14.2
2022-11-09T07:09:39.698Z,15.6
2022-11-09T07:10:44.542Z,16.6
2022-11-09T07:11:48.758Z,14.9
2022-11-09T07:12:52.898Z,16.1
2022-11-09T07:13:57.824Z,16
2022-11-09T07:15:01.567Z,14.7
2022-11-09T07:16:06.099Z,14.4
2022-11-09T07:17:10.679Z,14.7
2022-11-09T07:18:14.827Z,16.2
2022-11-09T07:19:18.990Z,15.8
2022-11-09T07:20:23.719Z,15.6
2022-11-09T07:21:28.099Z,16.3
2022-11-09T07:22:32.307Z,16.9
2022-11-09T07:23:36.763Z,17.6
2022-11-09T07:24:41.651Z,17.1
2022-11-09T07:25:45.946Z,17.5
2022-11-09T07:26:51.520Z,17
2022-11-09T07:27:55.692Z,17.2
2022-11-09T07:29:03.230Z,14.4
2022-11-09T07:30:07.850Z,16.4
2022-11-09T07:31:12.605Z,16.5
2022-11-09T07:32:17.322Z,15.8
2022-11-09T07:33:22.534Z,17.8
2022-11-09T07:34:26.847Z,14.8
2022-11-09T07:35:31.777Z,15.7
2022-11-09T07:36:36.436Z,15.8
2022-11-09T07:37:40.934Z,16
2022-11-09T07:38:45.536Z,16.7
2022-11-09T07:39:50.637Z,15.2
2022-11-09T07:40:55.089Z,16.3
2022-11-09T07:42:02.297Z,17.1
2022-11-09T07:43:07.025Z,15.8
2022-11-09T07:44:11.442Z,16.1
2022-11-09T07:45:15.745Z,14.5
2022-11-09T07:46:20.393Z,15.8
2022-11-09T07:47:24.776Z,16.5
2022-11-09T07:48:29.357Z,15.6
2022-11-09T07:49:35.592Z,16.7
2022-11-09T07:50:40.117Z,14.2
2022-11-09T07:51:44.634Z,15.2
2022-11-09T07:52:49.145Z,15.5
2022-11-09T07:53:53.986Z,15.5
2022-11-09T07:54:58.249Z,15.6
2022-11-09T07:56:02.934Z,17.1
2022-11-09T07:57:07.419Z,15
2022-11-09T07:58:11.957Z,15.4
2022-11-09T07:59:16.074Z,15.5
2022-11-09T08:00:23.561Z,15.6
2022-11-09T08:01:25.059Z,16.2
2022-11-09T08:02:29.481Z,16.2
2022-11-09T08:03:33.921Z,15.4
2022-11-09T08:04:38.077Z,16
2022-11-09T08:05:42.447Z,15.6
2022-11-09T08:06:50.287Z,15.5
2022-11-09T08:07:54.873Z,14.8
2022-11-09T08:08:59.236Z,16.3
2022-11-09T08:10:03.627Z,16.1
2022-11-09T08:11:08.216Z,14.6
2022-11-09T08:12:12.904Z,14.4
2022-11-09T08:13:17.172Z,14.9
2022-11-09T08:14:21.633Z,15.1
2022-11-09T08:15:25.951Z,15.9
2022-11-09T08:16:34.932Z,15.6
2022-11-09T08:17:35.056Z,18.3
2022-11-09T08:18:39.447Z,16.9
2022-11-09T08:19:43.593Z,15.3
2022-11-09T08:20:48.289Z,15.7
2022-11-09T08:21:52.671Z,16.3
2022-11-09T08:23:00.986Z,15.2
2022-11-09T08:24:01.390Z,15.3
2022-11-09T08:25:05.959Z,17
2022-11-09T08:26:10.053Z,17.2
2022-11-09T08:27:14.241Z,16.4
2022-11-09T08:28:19.107Z,14
2022-11-09T08:29:23.424Z,14.9
2022-11-09T08:30:27.840Z,15.5
2022-11-09T08:31:31.954Z,15.5
2022-11-09T08:32:36.450Z,14
2022-11-09T08:33:40.540Z,15.8
2022-11-09T08:34:44.612Z,16
2022-11-09T08:35:53.129Z,15
2022-11-09T08:36:53.779Z,15
2022-11-09T08:38:00.886Z,15.9
2022-11-09T08:39:05.339Z,16.8
2022-11-09T08:40:09.546Z,17.2
2022-11-09T08:41:14.505Z,16.1
2022-11-09T08:42:18.686Z,15.4
2022-11-09T08:43:22.734Z,16.6
2022-11-09T08:44:26.847Z,16.7
2022-11-09T08:45:31.414Z,15.6
2022-11-09T08:46:39.991Z,16.8
2022-11-09T08:47:39.571Z,16.3
2022-11-09T08:48:43.536Z,14.5
2022-11-09T08:49:47.551Z,15.6
2022-11-09T08:50:52.239Z,17.5
2022-11-09T08:51:59.363Z,14.4
2022-11-09T08:53:03.870Z,14.6
2022-11-09T08:54:07.974Z,15.9
2022-11-09T08:55:12.033Z,15.6
2022-11-09T08:56:16.190Z,16.1
2022-11-09T08:57:20.697Z,14.3
2022-11-09T08:58:24.995Z,15.8
2022-11-09T08:59:29.458Z,15.4
2022-11-09T09:00:33.878Z,14.8
2022-11-09T09:01:38.097Z,14.8
2022-11-09T09:02:42.562Z,15.4
2022-11-09T09:03:46.600Z,16.3
2022-11-09T09:04:50.746Z,16
2022-11-09T09:05:55.237Z,15.2
2022-11-09T09:06:59.700Z,15.6
2022-11-09T09:08:04.111Z,17.1
2022-11-09T09:09:08.458Z,16.1
2022-11-09T09:10:12.595Z,16.4
2022-11-09T09:11:16.937Z,14.9
2022-11-09T09:12:21.413Z,14.8
2022-11-09T09:13:25.784Z,15.9
2022-11-09T09:14:30.365Z,14.7
2022-11-09T09:15:34.919Z,15.2
2022-11-09T09:16:38.955Z,16.5
2022-11-09T09:17:43.144Z,16.2
2022-11-09T09:18:47.666Z,14.8
2022-11-09T09:19:52.094Z,15.3
2022-11-09T09:20:56.330Z,15.7
2022-11-09T09:22:00.342Z,15.8
2022-11-09T09:23:04.435Z,16.4
2022-11-09T09:24:08.516Z,16
2022-11-09T09:25:13.106Z,15.7
2022-11-09T09:26:17.687Z,14.8
2022-11-09T09:27:22.246Z,14.6
2022-11-09T09:28:26.363Z,15.2
2022-11-09T09:29:31.049Z,14.9
2022-11-09T09:30:35.706Z,15
2022-11-09T09:31:40.031Z,13.5
2022-11-09T09:32:44.097Z,13.7
2022-11-09T09:33:48.168Z,14.8
2022-11-09T09:34:52.333Z,15.4
2022-11-09T09:35:57.134Z,14.5
2022-11-09T09:37:01.402Z,14.1
2022-11-09T09:38:05.945Z,15.3
2022-11-09T09:39:10.070Z,13.7
2022-11-09T09:40:14.215Z,16
2022-11-09T09:41:23.674Z,14.1
2022-11-09T09:42:27.950Z,14.9
2022-11-09T09:43:38.413Z,15
2022-11-09T09:44:42.016Z,15.4
2022-11-09T09:45:56.838Z,15.2
2022-11-09T09:47:00.939Z,14.7
2022-11-09T09:48:15.782Z,15.6
2022-11-09T09:49:27.826Z,15.6
2022-11-09T09:50:31.967Z,15.1
2022-11-09T09:51:41.122Z,15.1
2022-11-09T09:53:04.963Z,15.5
2022-11-09T09:54:00.930Z,14.4
2022-11-09T09:55:10.645Z,16
2022-11-09T09:56:18.298Z,15.3
2022-11-09T09:57:22.898Z,15.1
2022-11-09T09:58:27.186Z,15.3
2022-11-09T09:59:31.790Z,15.2
2022-11-09T10:00:41.266Z,15.6
2022-11-09T10:01:45.982Z,15.2
2022-11-09T10:02:50.310Z,15.5
2022-11-09T10:03:54.407Z,15.4
2022-11-09T10:04:58.563Z,16
2022-11-09T10:06:02.579Z,16.3
2022-11-09T10:07:11.865Z,15.2
2022-11-09T10:08:26.506Z,15.8
2022-11-09T10:09:38.766Z,16.4
2022-11-09T10:10:45.838Z,15.5
2022-11-09T10:12:01.379Z,15.1
2022-11-09T10:13:10.442Z,14.6
2022-11-09T10:14:22.582Z,15
2022-11-09T10:15:37.152Z,14
2022-11-09T10:16:44.528Z,13.9
2022-11-09T10:17:51.316Z,14.4
2022-11-09T10:19:05.744Z,14.1
2022-11-09T10:20:20.450Z,14.6
2022-11-09T10:21:30.223Z,15.1
2022-11-09T10:22:42.798Z,14.4
2022-11-09T10:23:52.002Z,14.7
2022-11-09T10:25:32.497Z,13.4
2022-11-09T10:26:18.859Z,13.9
2022-11-09T10:27:28.226Z,13.4
2022-11-09T10:28:54.564Z,14.2
2022-11-09T10:29:41.830Z,14
2022-11-09T10:30:45.887Z,14.1
2022-11-09T10:31:50.041Z,14.3
2022-11-09T10:32:54.213Z,14.3
2022-11-09T10:33:58.546Z,14.3
2022-11-09T10:35:05.210Z,14.3
2022-11-09T10:36:14.482Z,14.5
2022-11-09T10:37:29.294Z,12.9
2022-11-09T10:38:33.334Z,13.4
2022-11-09T10:39:37.342Z,13.3
2022-11-09T10:40:41.433Z,13.1
2022-11-09T10:41:45.474Z,13
2022-11-09T10:42:49.665Z,13.5
2022-11-09T10:43:53.625Z,13
2022-11-09T10:44:57.846Z,12.9
2022-11-09T10:46:02.267Z,12.7
2022-11-09T10:47:06.853Z,12.9
2022-11-09T10:48:11.219Z,13
2022-11-09T10:49:15.542Z,13.6
2022-11-09T10:50:19.634Z,13
2022-11-09T10:51:27.309Z,13.3
2022-11-09T10:52:31.752Z,13
2022-11-09T10:53:35.974Z,14
2022-11-09T10:54:40.517Z,14.1
2022-11-09T10:55:45.111Z,14
2022-11-09T10:57:07.643Z,14
2022-11-09T10:58:03.462Z,14.3
2022-11-09T10:59:13.165Z,14.5
2022-11-09T11:00:27.755Z,13.3
2022-11-09T11:01:31.931Z,13.7
2022-11-09T11:02:36.447Z,12.6
2022-11-09T11:03:43.532Z,11.6
2022-11-09T11:04:47.612Z,12.5
2022-11-09T11:06:00.284Z,12.2
2022-11-09T11:07:14.797Z,12
2022-11-09T11:08:19.733Z,12.3
2022-11-09T11:09:30.307Z,12.3
2022-11-09T11:10:34.335Z,12.5
2022-11-09T11:11:38.615Z,12
2022-11-09T11:12:42.548Z,11.6
2022-11-09T11:13:46.754Z,12.3
2022-11-09T11:14:51.273Z,12.8
2022-11-09T11:15:55.838Z,12.1
2022-11-09T11:16:59.910Z,12.6
2022-11-09T11:18:03.945Z,12.8
2022-11-09T11:19:13.976Z,12.8
2022-11-09T11:20:26.006Z,12.4
2022-11-09T11:21:30.518Z,12.1
2022-11-09T11:22:34.575Z,11.2
2022-11-09T11:23:38.651Z,12.1
2022-11-09T11:24:42.746Z,11.6
2022-11-09T11:25:54.843Z,12.1
2022-11-09T11:27:09.404Z,11.6
2022-11-09T11:28:14.315Z,12.1
2022-11-09T11:29:18.362Z,12.7
2022-11-09T11:30:27.575Z,12.1
2022-11-09T11:31:34.723Z,12.2
2022-11-09T11:32:39.038Z,12.5
2022-11-09T11:33:43.413Z,12.3
2022-11-09T11:35:02.155Z,12
2022-11-09T11:35:52.569Z,12.2
2022-11-09T11:36:59.670Z,11.2
2022-11-09T11:38:09.331Z,11.4
2022-11-09T11:39:16.426Z,12.2
2022-11-09T11:40:26.168Z,11.3
2022-11-09T11:41:30.299Z,11.5
2022-11-09T11:42:44.990Z,11.2
2022-11-09T11:43:57.351Z,11.7
2022-11-09T11:45:38.763Z,11.4
2022-11-09T11:46:19.348Z,11.9
2022-11-09T11:47:34.645Z,11.9
2022-11-09T11:48:49.247Z,12
2022-11-09T11:50:01.779Z,11.3
2022-11-09T11:51:06.505Z,11.9
2022-11-09T11:52:16.214Z,12.6
2022-11-09T11:53:26.318Z,12.6
2022-11-09T11:54:41.091Z,12.8
2022-11-09T11:55:50.598Z,12.2
2022-11-09T11:56:57.307Z,12.3
2022-11-09T11:58:04.448Z,11.2
2022-11-09T11:59:16.752Z,11.3
2022-11-09T12:00:29.708Z,11.7
2022-11-09T12:01:34.730Z,11.9
2022-11-09T12:02:45.252Z,11.5
2022-11-09T12:03:57.334Z,11.7
2022-11-09T12:05:01.399Z,12
2022-11-09T12:06:15.752Z,11.6
2022-11-09T12:07:25.452Z,12.1
2022-11-09T12:08:35.120Z,12.6
2022-11-09T12:09:47.228Z,12.5
2022-11-09T12:11:01.982Z,12
2022-11-09T12:12:14.250Z,12.4
2022-11-09T12:13:23.860Z,12.2
2022-11-09T12:14:38.348Z,12.3
2022-11-09T12:15:45.765Z,13.1
2022-11-09T12:16:52.942Z,12.7
2022-11-09T12:18:02.719Z,12.2
2022-11-09T12:19:17.402Z,13.4
2022-11-09T12:20:24.478Z,13.8
2022-11-09T12:21:39.126Z,13.9
2022-11-09T12:22:43.191Z,12.8
2022-11-09T12:23:53.903Z,12.3
2022-11-09T12:25:06.103Z,12.2
2022-11-09T12:26:14.968Z,12.3
2022-11-09T12:27:31.896Z,11.8
2022-11-09T12:28:32.955Z,12.5
2022-11-09T12:29:42.214Z,12.4
2022-11-09T12:30:52.045Z,12.3
2022-11-09T12:32:03.991Z,12.6
2022-11-09T12:33:16.386Z,12.7
2022-11-09T12:34:23.430Z,12.6
2022-11-09T12:35:33.272Z,12.6
2022-11-09T12:36:40.266Z,12.9
2022-11-09T12:37:47.283Z,12.9
2022-11-09T12:38:56.454Z,12.9
2022-11-09T12:40:11.318Z,13.2
2022-11-09T12:41:23.446Z,13.4
2022-11-09T12:42:27.428Z,13.1
2022-11-09T12:43:36.615Z,12.8
2022-11-09T12:44:45.842Z,12.9
2022-11-09T12:45:55.966Z,13
2022-11-09T12:47:00.039Z,13
2022-11-09T12:48:04.219Z,12.9
2022-11-09T12:49:18.947Z,13.7
2022-11-09T12:50:25.959Z,13.4
2022-11-09T12:51:30.135Z,13.8
2022-11-09T12:52:34.721Z,13.6
2022-11-09T12:53:38.853Z,13.4
2022-11-09T12:54:43.795Z,14.1
2022-11-09T12:55:47.930Z,12.7
2022-11-09T12:57:02.688Z,13.5
2022-11-09T12:58:07.222Z,13.6
2022-11-09T12:59:19.536Z,13.1
2022-11-09T13:00:29.475Z,12.8
2022-11-09T13:01:33.970Z,12.6
2022-11-09T13:02:38.311Z,13.6
2022-11-09T13:03:42.394Z,14.1
2022-11-09T13:04:54.467Z,13.7
2022-11-09T13:06:02.427Z,14.5
2022-11-09T13:07:12.973Z,14.5
2022-11-09T13:08:17.066Z,13.9
2022-11-09T13:09:21.616Z,14.5
2022-11-09T13:10:25.682Z,14.7
2022-11-09T13:11:32.906Z,14.2
2022-11-09T13:12:45.002Z,14.9
2022-11-09T13:13:49.142Z,14.6
2022-11-09T13:14:53.687Z,14.7
2022-11-09T13:15:58.558Z,14.5
2022-11-09T13:17:13.120Z,14
2022-11-09T13:18:25.788Z,15.4
2022-11-09T13:19:33.423Z,15.4
2022-11-09T13:20:59.703Z,15.1
2022-11-09T13:21:48.646Z,15.7
2022-11-09T13:22:53.203Z,15.6
2022-11-09T13:24:02.610Z,16.9
2022-11-09T13:25:02.009Z,16.1
2022-11-09T13:26:06.551Z,16.1
2022-11-09T13:27:21.361Z,14.6
2022-11-09T13:28:31.191Z,15.2
2022-11-09T13:29:35.559Z,14.5
2022-11-09T13:30:40.012Z,15.3
2022-11-09T13:31:44.086Z,15
2022-11-09T13:32:58.898Z,14.5
2022-11-09T13:34:06.063Z,13
2022-11-09T13:35:20.859Z,13.6
2022-11-09T13:36:35.527Z,11.8
2022-11-09T13:37:39.574Z,13.2
2022-11-09T13:38:44.143Z,12.2
2022-11-09T13:39:48.166Z,10.9
2022-11-09T13:40:52.297Z,11.1
2022-11-09T13:42:02.432Z,10.9
2022-11-09T13:43:06.581Z,13.3
2022-11-09T13:45:18.290Z,11
2022-11-09T13:46:27.523Z,12.7
2022-11-09T13:47:31.529Z,11.9
2022-11-09T13:48:35.573Z,12.7
2022-11-09T13:49:39.742Z,12.9
2022-11-09T13:50:47.392Z,12.6
2022-11-09T13:51:50.866Z,13.5
2022-11-09T13:52:54.883Z,13.9
2022-11-09T13:53:59.261Z,13
2022-11-09T13:55:06.310Z,13.2
2022-11-09T13:56:13.530Z,12.8
2022-11-09T13:57:23.198Z,12
2022-11-09T13:58:27.586Z,12.4
2022-11-09T13:59:34.807Z,12.5
2022-11-09T14:00:42.402Z,12
2022-11-09T14:01:48.086Z,12.1
2022-11-09T14:02:52.578Z,12.6
2022-11-09T14:04:03.170Z,12.6
2022-11-09T14:05:07.258Z,13.1
2022-11-09T14:06:16.424Z,13.4
2022-11-09T14:07:21.035Z,13.6
2022-11-09T14:08:25.060Z,12.4
2022-11-09T14:09:29.142Z,13.6
2022-11-09T14:10:33.125Z,12.3
2022-11-09T14:11:42.273Z,13.9
2022-11-09T14:12:56.606Z,12.2
2022-11-09T14:14:08.695Z,13
2022-11-09T14:15:23.618Z,12.8
2022-11-09T14:16:30.769Z,12.8
2022-11-09T14:17:45.510Z,13.1
2022-11-09T14:18:59.859Z,13.4
2022-11-09T14:20:13.065Z,13.8
2022-11-09T14:21:27.601Z,12.9
2022-11-09T14:22:36.971Z,13.2
2022-11-09T14:23:41.247Z,13.3
2022-11-09T14:24:45.762Z,13.7
2022-11-09T14:25:50.187Z,13.6
2022-11-09T14:26:54.524Z,13.4
2022-11-09T14:28:03.759Z,13.1
2022-11-09T14:29:12.855Z,13.9
2022-11-09T14:30:17.072Z,13.6
2022-11-09T14:31:21.567Z,12.7
2022-11-09T14:32:29.439Z,13
2022-11-09T14:33:36.386Z,13.9
2022-11-09T14:34:41.022Z,12.8
2022-11-09T14:35:45.525Z,13.3
2022-11-09T14:36:49.531Z,12.8
2022-11-09T14:37:54.078Z,12.3
2022-11-09T14:38:58.139Z,12.5
2022-11-09T14:40:02.277Z,12.6
2022-11-09T14:41:06.865Z,13.5
2022-11-09T14:42:19.091Z,15